Time;durP1;ratioP1;P1;durP2;ratioP2;P2;SDS_P1;SDS_P2;PMS_P1;PMS_P2;Temp;Humidity;BMP_temperature;BMP_pressure;BME280_temperature;BME280_humidity;BME280_pressure;Samples;Min_cycle;Max_cycle;Signal;HPM_P1;HPM_P2
2022/11/26 00:01:16;;;;;;;;;;;3.30;99.90;;;;;;4937897;29;19930;-73
2022/11/26 00:03:42;;;;;;;;;;;3.20;99.90;;;;;;4953599;28;19926;-73
2022/11/26 00:06:18;;;;;;;;;;;3.20;99.90;;;;;;4915626;29;20314;-73
2022/11/26 00:08:43;;;;;;;;;;;3.20;99.90;;;;;;4935437;29;19923;-73
2022/11/26 00:11:12;;;;;;;;;;;3.20;99.90;;;;;;4914375;29;19922;-73
2022/11/26 00:13:37;;;;;;;;;;;3.20;99.90;;;;;;4927969;29;19962;-73
2022/11/26 00:16:03;;;;;;;;;;;3.20;99.90;;;;;;4906332;29;20492;-73
2022/11/26 00:18:29;;;;;;;;;;;3.20;99.90;;;;;;4924325;29;19962;-75
2022/11/26 00:20:59;;;;;;;;;;;3.20;99.90;;;;;;4931969;29;19934;-73
2022/11/26 00:23:46;;;;;;;;;;;3.20;99.90;;;;;;4914827;29;19923;-73
2022/11/26 00:26:15;;;;;;;;;;;3.20;99.90;;;;;;4930039;29;20274;-73
2022/11/26 00:28:47;;;;;;;;;;;3.20;99.90;;;;;;4903486;29;19927;-73
2022/11/26 00:31:13;;;;;;;;;;;3.20;99.90;;;;;;4914347;29;20038;-73
2022/11/26 00:33:39;;;;;;;;;;;3.20;99.90;;;;;;4928951;29;19954;-73
2022/11/26 00:36:26;;;;;;;;;;;3.20;99.90;;;;;;4921080;29;19923;-73
2022/11/26 00:38:56;;;;;;;;;;;3.20;99.90;;;;;;4927223;29;19934;-73
2022/11/26 00:41:22;;;;;;;;;;;3.20;99.90;;;;;;4934421;29;19923;-73
2022/11/26 00:43:48;;;;;;;;;;;3.20;99.90;;;;;;4931791;29;20002;-74
2022/11/26 00:46:19;;;;;;;;;;;3.20;99.90;;;;;;4924487;29;20017;-73
2022/11/26 00:48:45;;;;;;;;;;;3.20;99.90;;;;;;4942776;28;19926;-73
2022/11/26 00:51:21;;;;;;;;;;;3.20;99.90;;;;;;4905157;29;20402;-73
2022/11/26 00:53:47;;;;;;;;;;;3.20;99.90;;;;;;4930002;29;19974;-73
2022/11/26 00:56:41;;;;;;;;;;;3.20;99.90;;;;;;4917817;29;19929;-73
2022/11/26 00:59:11;;;;;;;;;;;3.20;99.90;;;;;;4909262;29;19927;-73
2022/11/26 01:01:39;;;;;;;;;;;3.20;99.90;;;;;;4914347;29;19923;-73
2022/11/26 01:04:05;;;;;;;;;;;3.20;99.90;;;;;;4916752;29;19927;-73
2022/11/26 01:06:32;;;;;;;;;;;3.20;99.90;;;;;;4915752;29;19926;-73
2022/11/26 01:08:58;;;;;;;;;;;3.30;99.90;;;;;;4929953;29;20242;-74
2022/11/26 01:11:24;;;;;;;;;;;3.30;99.90;;;;;;5197457;23;20707;-73
2022/11/26 01:13:51;;;;;;;;;;;3.30;99.90;;;;;;4953466;28;19932;-73
2022/11/26 01:18:45;;;;;;;;;;;3.20;99.90;;;;;;4986563;28;20300;-73
2022/11/26 01:23:45;;;;;;;;;;;3.20;99.90;;;;;;4987068;28;19976;-74
2022/11/26 01:28:46;;;;;;;;;;;3.10;99.90;;;;;;5101851;23;19930;-73
2022/11/26 01:33:49;;;;;;;;;;;3.20;99.90;;;;;;5203317;23;19953;-74
2022/11/26 01:39:19;;;;;;;;;;;3.30;99.90;;;;;;5106479;23;20272;-73
2022/11/26 01:42:04;;;;;;;;;;;3.30;99.90;;;;;;4955945;28;19926;-73
2022/11/26 01:44:30;;;;;;;;;;;3.40;99.90;;;;;;4970128;28;19925;-73
2022/11/26 01:46:56;;;;;;;;;;;3.40;99.90;;;;;;4954869;28;20021;-73
2022/11/26 01:49:24;;;;;;;;;;;3.40;99.90;;;;;;4954769;28;19922;-73
2022/11/26 01:51:56;;;;;;;;;;;3.40;99.90;;;;;;4965373;28;19922;-73
2022/11/26 01:54:22;;;;;;;;;;;3.40;99.90;;;;;;4946120;28;20413;-73
2022/11/26 01:56:53;;;;;;;;;;;3.40;99.90;;;;;;4974890;28;19933;-73
2022/11/26 01:59:30;;;;;;;;;;;3.30;99.90;;;;;;4974675;28;20027;-73
2022/11/26 02:01:57;;;;;;;;;;;3.30;99.90;;;;;;4959876;28;19936;-73
2022/11/26 02:04:23;;;;;;;;;;;3.30;99.90;;;;;;4965763;28;19926;-73
2022/11/26 02:06:49;;;;;;;;;;;3.30;99.90;;;;;;4949992;28;20067;-73
2022/11/26 02:09:15;;;;;;;;;;;3.30;99.90;;;;;;4955149;28;19973;-73
2022/11/26 02:11:41;;;;;;;;;;;3.30;99.90;;;;;;4956004;28;19936;-73
2022/11/26 02:14:32;;;;;;;;;;;3.30;99.90;;;;;;4955811;28;19921;-73
2022/11/26 02:17:04;;;;;;;;;;;3.30;99.90;;;;;;4958175;28;20416;-73
2022/11/26 02:19:49;;;;;;;;;;;3.30;99.90;;;;;;4974876;28;19925;-73
2022/11/26 02:22:33;;;;;;;;;;;3.30;99.90;;;;;;4958484;28;20417;-73
2022/11/26 02:25:06;;;;;;;;;;;3.30;99.90;;;;;;4958465;28;19926;-73
2022/11/26 02:27:45;;;;;;;;;;;3.30;99.90;;;;;;4973678;28;19951;-73
2022/11/26 02:30:15;;;;;;;;;;;3.30;99.90;;;;;;4958380;28;19949;-73
2022/11/26 02:32:44;;;;;;;;;;;3.30;99.90;;;;;;4956590;28;19979;-73
2022/11/26 02:35:32;;;;;;;;;;;3.30;99.90;;;;;;4957798;28;19984;-73
2022/11/26 02:38:06;;;;;;;;;;;3.30;99.90;;;;;;4944756;28;19933;-73
2022/11/26 02:40:31;;;;;;;;;;;3.30;99.90;;;;;;4960490;28;19922;-73
2022/11/26 02:43:03;;;;;;;;;;;3.30;99.90;;;;;;4971061;28;19973;-73
2022/11/26 02:45:34;;;;;;;;;;;3.30;99.90;;;;;;4966672;28;19922;-73
2022/11/26 02:48:01;;;;;;;;;;;3.30;99.90;;;;;;4944162;28;19988;-73
2022/11/26 02:50:33;;;;;;;;;;;3.40;99.90;;;;;;4949304;28;19926;-73
2022/11/26 02:53:00;;;;;;;;;;;3.40;99.90;;;;;;4938531;28;20321;-73
2022/11/26 02:55:28;;;;;;;;;;;3.50;99.90;;;;;;4976236;28;19930;-73
2022/11/26 02:57:55;;;;;;;;;;;3.50;99.90;;;;;;4973707;28;19984;-73
2022/11/26 03:00:20;;;;;;;;;;;3.50;99.90;;;;;;4964492;28;19969;-73
2022/11/26 03:02:50;;;;;;;;;;;3.50;99.90;;;;;;4993545;28;19983;-73
2022/11/26 03:05:17;;;;;;;;;;;3.50;99.90;;;;;;4954275;28;20278;-73
2022/11/26 03:07:45;;;;;;;;;;;3.60;99.90;;;;;;4981862;28;20020;-73
2022/11/26 03:10:12;;;;;;;;;;;3.60;99.90;;;;;;4962799;28;20405;-73
2022/11/26 03:12:38;;;;;;;;;;;3.70;99.90;;;;;;4945277;28;20020;-73
2022/11/26 03:15:04;;;;;;;;;;;3.70;99.90;;;;;;4953232;28;20404;-73
2022/11/26 03:17:29;;;;;;;;;;;3.70;99.90;;;;;;4951464;28;19933;-73
2022/11/26 03:19:55;;;;;;;;;;;3.70;99.90;;;;;;4947727;28;20370;-73
2022/11/26 03:22:20;;;;;;;;;;;3.70;99.90;;;;;;4929124;28;19922;-73
2022/11/26 03:25:14;;;;;;;;;;;3.70;99.90;;;;;;4960185;28;20369;-73
2022/11/26 03:27:40;;;;;;;;;;;3.70;99.90;;;;;;4949356;28;19930;-73
2022/11/26 03:30:06;;;;;;;;;;;3.70;99.90;;;;;;4947044;28;20317;-73
2022/11/26 03:32:31;;;;;;;;;;;3.70;99.90;;;;;;4954179;28;19922;-73
2022/11/26 03:34:57;;;;;;;;;;;3.70;99.90;;;;;;4953898;28;19926;-73
2022/11/26 03:37:22;;;;;;;;;;;3.80;99.90;;;;;;4935528;28;19988;-73
2022/11/26 03:39:48;;;;;;;;;;;3.80;99.90;;;;;;4946820;28;19930;-73
2022/11/26 03:42:14;;;;;;;;;;;3.80;99.90;;;;;;4945101;28;19922;-73
2022/11/26 03:44:39;;;;;;;;;;;3.80;99.90;;;;;;4947102;28;19933;-73
2022/11/26 03:47:05;;;;;;;;;;;3.80;99.90;;;;;;4942262;28;19926;-73
2022/11/26 03:49:30;;;;;;;;;;;3.80;99.90;;;;;;4962688;28;19926;-73
2022/11/26 03:51:56;;;;;;;;;;;3.80;99.90;;;;;;4943343;28;19926;-74
2022/11/26 03:54:22;;;;;;;;;;;3.80;99.90;;;;;;4973142;28;20392;-73
2022/11/26 03:56:47;;;;;;;;;;;3.80;99.90;;;;;;4938390;28;20017;-73
2022/11/26 03:59:13;;;;;;;;;;;3.80;99.90;;;;;;4945759;28;19922;-73
2022/11/26 04:01:38;;;;;;;;;;;3.90;99.90;;;;;;4970753;28;19922;-73
2022/11/26 04:04:04;;;;;;;;;;;3.80;99.90;;;;;;4956489;28;19922;-73
2022/11/26 04:06:30;;;;;;;;;;;3.80;99.90;;;;;;4960716;28;19930;-74
2022/11/26 04:08:56;;;;;;;;;;;3.80;99.90;;;;;;4945488;28;19956;-73
2022/11/26 04:11:21;;;;;;;;;;;3.80;99.90;;;;;;4952220;28;19922;-73
2022/11/26 04:13:47;;;;;;;;;;;3.80;99.90;;;;;;4978295;28;19926;-73
2022/11/26 04:16:12;;;;;;;;;;;3.80;99.90;;;;;;4966838;28;20267;-73
2022/11/26 04:18:38;;;;;;;;;;;3.80;99.90;;;;;;4936711;28;20024;-73
2022/11/26 04:21:04;;;;;;;;;;;3.90;99.90;;;;;;4952340;28;20016;-73
2022/11/26 04:23:30;;;;;;;;;;;3.90;99.90;;;;;;4947188;28;20267;-73
2022/11/26 04:25:56;;;;;;;;;;;3.90;99.90;;;;;;4946416;28;20017;-73
2022/11/26 04:28:21;;;;;;;;;;;3.90;99.90;;;;;;4960435;28;19925;-73
2022/11/26 04:31:12;;;;;;;;;;;3.90;99.90;;;;;;4951342;28;19953;-73
2022/11/26 04:33:37;;;;;;;;;;;3.80;99.90;;;;;;4936006;28;20057;-73
2022/11/26 04:36:09;;;;;;;;;;;3.80;99.90;;;;;;4967845;28;20009;-73
2022/11/26 04:38:35;;;;;;;;;;;3.80;99.90;;;;;;4943177;28;19926;-73
2022/11/26 04:41:01;;;;;;;;;;;3.80;99.90;;;;;;4939608;28;19927;-73
2022/11/26 04:43:27;;;;;;;;;;;3.80;99.90;;;;;;4932469;29;20008;-73
2022/11/26 04:45:52;;;;;;;;;;;3.80;99.90;;;;;;4947083;28;20040;-73
2022/11/26 04:48:18;;;;;;;;;;;3.80;99.90;;;;;;4940407;28;19922;-73
2022/11/26 04:50:43;;;;;;;;;;;3.80;99.90;;;;;;4943464;28;19949;-73
2022/11/26 04:53:09;;;;;;;;;;;3.80;99.90;;;;;;4928398;29;19926;-73
2022/11/26 04:55:35;;;;;;;;;;;3.90;99.90;;;;;;5110012;23;19949;-73
2022/11/26 04:58:00;;;;;;;;;;;3.90;99.90;;;;;;4932415;29;20135;-73
2022/11/26 05:00:26;;;;;;;;;;;3.90;99.90;;;;;;5100323;23;21297;-73
2022/11/26 05:02:52;;;;;;;;;;;3.90;99.90;;;;;;4967339;28;20020;-73
2022/11/26 05:07:50;;;;;;;;;;;3.90;99.90;;;;;;4990169;28;19933;-73
2022/11/26 05:12:51;;;;;;;;;;;3.80;99.90;;;;;;4988131;23;19929;-72
2022/11/26 05:17:52;;;;;;;;;;;3.80;99.90;;;;;;5040369;23;19925;-74
2022/11/26 05:22:53;;;;;;;;;;;3.70;99.90;;;;;;5155016;23;19930;-72
2022/11/26 05:25:19;;;;;;;;;;;3.70;99.90;;;;;;4969884;28;20385;-72
2022/11/26 05:27:44;;;;;;;;;;;3.70;99.90;;;;;;4944738;28;19926;-72
2022/11/26 05:30:10;;;;;;;;;;;3.60;99.90;;;;;;4949077;28;20141;-74
2022/11/26 05:32:36;;;;;;;;;;;3.60;99.90;;;;;;4955464;28;19977;-73
2022/11/26 05:37:37;;;;;;;;;;;3.50;99.90;;;;;;4978516;23;19958;-76
2022/11/26 05:42:38;;;;;;;;;;;3.50;99.90;;;;;;4994164;23;19926;-73
2022/11/26 05:47:39;;;;;;;;;;;3.40;99.90;;;;;;5002111;23;19937;-71
2022/11/26 05:52:40;;;;;;;;;;;3.40;99.90;;;;;;5040495;23;19933;-76
2022/11/26 05:57:47;;;;;;;;;;;3.40;99.90;;;;;;4971030;28;19961;-73
2022/11/26 06:02:48;;;;;;;;;;;3.40;99.90;;;;;;4991750;23;19984;-73
2022/11/26 06:07:49;;;;;;;;;;;3.30;99.90;;;;;;5063790;23;19956;-76
2022/11/26 06:12:50;;;;;;;;;;;3.20;99.90;;;;;;5051877;23;19953;-73
2022/11/26 06:23:57;;;;;;;;;;;3.30;99.90;;;;;;4922063;29;20024;-72
2022/11/26 06:28:58;;;;;;;;;;;3.40;99.90;;;;;;4999435;23;20313;-72
2022/11/26 06:33:59;;;;;;;;;;;3.30;99.90;;;;;;5100668;23;19957;-74
2022/11/26 06:39:00;;;;;;;;;;;3.30;99.90;;;;;;5187322;23;19938;-72
2022/11/26 06:41:27;;;;;;;;;;;3.20;99.90;;;;;;4957297;28;19926;-72
2022/11/26 06:43:52;;;;;;;;;;;3.20;99.90;;;;;;4957426;28;19944;-72
2022/11/26 06:46:18;;;;;;;;;;;3.20;99.90;;;;;;4949262;28;19921;-72
2022/11/26 06:48:44;;;;;;;;;;;3.20;99.90;;;;;;4990453;28;20068;-72
2022/11/26 06:51:10;;;;;;;;;;;3.20;99.90;;;;;;4957832;28;19928;-72
2022/11/26 06:53:36;;;;;;;;;;;3.20;99.90;;;;;;4986086;28;20396;-72
2022/11/26 06:56:03;;;;;;;;;;;3.20;99.90;;;;;;4965800;28;20020;-72
2022/11/26 06:58:28;;;;;;;;;;;3.20;99.90;;;;;;4994026;28;20037;-73
2022/11/26 07:00:54;;;;;;;;;;;3.20;99.90;;;;;;4941018;28;20027;-72
2022/11/26 07:03:20;;;;;;;;;;;3.20;99.90;;;;;;4956760;28;20508;-73
2022/11/26 07:05:45;;;;;;;;;;;3.20;99.90;;;;;;4957850;28;19949;-72
2022/11/26 07:08:11;;;;;;;;;;;3.20;99.90;;;;;;4972607;28;19984;-72
2022/11/26 07:10:37;;;;;;;;;;;3.20;99.90;;;;;;4957447;28;20434;-72
2022/11/26 07:13:02;;;;;;;;;;;3.30;99.90;;;;;;4972512;28;20020;-73
2022/11/26 07:15:28;;;;;;;;;;;3.30;99.90;;;;;;4957527;28;20012;-73
2022/11/26 07:17:54;;;;;;;;;;;3.40;99.90;;;;;;4945624;28;19925;-72
2022/11/26 07:20:20;;;;;;;;;;;3.40;99.90;;;;;;4980484;28;19933;-73
2022/11/26 07:22:45;;;;;;;;;;;3.40;99.90;;;;;;4994091;28;19930;-73
2022/11/26 07:25:11;;;;;;;;;;;3.40;99.90;;;;;;4956707;28;20020;-72
2022/11/26 07:27:37;;;;;;;;;;;3.40;99.90;;;;;;4969843;28;19922;-72
2022/11/26 07:30:03;;;;;;;;;;;3.50;99.90;;;;;;4980079;28;19929;-73
2022/11/26 07:32:29;;;;;;;;;;;3.60;99.90;;;;;;4972944;28;19961;-74
2022/11/26 07:34:54;;;;;;;;;;;3.60;99.90;;;;;;4973937;28;19996;-73
2022/11/26 07:37:20;;;;;;;;;;;3.60;99.90;;;;;;4973004;28;20215;-72
2022/11/26 07:39:46;;;;;;;;;;;3.70;99.90;;;;;;4988939;28;20020;-73
2022/11/26 07:42:12;;;;;;;;;;;3.80;99.90;;;;;;4945928;28;19972;-73
2022/11/26 07:44:38;;;;;;;;;;;3.80;99.90;;;;;;4930310;28;20138;-73
2022/11/26 07:47:26;;;;;;;;;;;3.90;99.90;;;;;;4972215;28;20339;-75
2022/11/26 07:49:51;;;;;;;;;;;3.90;99.90;;;;;;4956877;28;19921;-76
2022/11/26 07:52:22;;;;;;;;;;;4.00;99.90;;;;;;4974044;28;20417;-75
2022/11/26 07:54:48;;;;;;;;;;;4.10;99.90;;;;;;4957850;28;20127;-75
2022/11/26 07:57:14;;;;;;;;;;;4.20;99.90;;;;;;4973294;28;19926;-76
2022/11/26 07:59:39;;;;;;;;;;;4.30;99.90;;;;;;4956678;28;19922;-75
2022/11/26 08:04:40;;;;;;;;;;;4.40;99.90;;;;;;4989754;23;19930;-74
2022/11/26 08:07:06;;;;;;;;;;;4.50;99.90;;;;;;4957067;28;19925;-73
2022/11/26 08:09:32;;;;;;;;;;;4.60;99.90;;;;;;4971908;28;19921;-74
2022/11/26 08:11:57;;;;;;;;;;;4.70;99.90;;;;;;4977272;28;19930;-73
2022/11/26 08:14:23;;;;;;;;;;;4.70;99.90;;;;;;4956204;28;19933;-73
2022/11/26 08:16:49;;;;;;;;;;;4.80;99.90;;;;;;4977432;28;20451;-74
2022/11/26 08:19:16;;;;;;;;;;;4.80;99.90;;;;;;4950997;28;19925;-74
2022/11/26 08:21:41;;;;;;;;;;;4.80;99.90;;;;;;4977559;28;19926;-74
2022/11/26 08:24:11;;;;;;;;;;;4.90;99.90;;;;;;4955935;28;20293;-74
2022/11/26 08:26:36;;;;;;;;;;;4.90;99.90;;;;;;4967576;28;20034;-74
2022/11/26 08:29:02;;;;;;;;;;;4.90;99.90;;;;;;4962785;28;19965;-74
2022/11/26 08:31:28;;;;;;;;;;;5.00;99.90;;;;;;4956529;28;20372;-75
2022/11/26 08:33:57;;;;;;;;;;;5.10;99.90;;;;;;4975187;28;19932;-74
2022/11/26 08:36:23;;;;;;;;;;;5.10;99.90;;;;;;4956740;28;19921;-74
2022/11/26 08:38:49;;;;;;;;;;;5.20;99.90;;;;;;4975861;28;20286;-73
2022/11/26 08:41:14;;;;;;;;;;;5.30;99.90;;;;;;4971572;28;20016;-74
2022/11/26 08:43:40;;;;;;;;;;;5.40;99.90;;;;;;4968943;28;19922;-74
2022/11/26 08:46:06;;;;;;;;;;;5.40;99.90;;;;;;4983673;28;19925;-74
2022/11/26 08:48:59;;;;;;;;;;;5.50;99.90;;;;;;4968337;28;20290;-74
2022/11/26 08:51:25;;;;;;;;;;;5.50;99.90;;;;;;4968877;28;19970;-72
2022/11/26 08:53:51;;;;;;;;;;;5.60;99.90;;;;;;4970089;28;19928;-73
2022/11/26 08:56:16;;;;;;;;;;;5.70;99.90;;;;;;4963090;28;19922;-73
2022/11/26 08:58:46;;;;;;;;;;;5.70;99.90;;;;;;4955348;28;20036;-74
2022/11/26 09:01:16;;;;;;;;;;;5.70;99.90;;;;;;4968246;28;19922;-73
2022/11/26 09:03:42;;;;;;;;;;;5.70;99.90;;;;;;4953439;28;19957;-73
2022/11/26 09:06:08;;;;;;;;;;;5.80;99.90;;;;;;4958498;28;20457;-73
2022/11/26 09:08:43;;;;;;;;;;;5.80;99.90;;;;;;4956830;28;20009;-73
2022/11/26 09:11:10;;;;;;;;;;;5.80;99.90;;;;;;4958436;28;19980;-74
2022/11/26 09:13:36;;;;;;;;;;;5.90;99.90;;;;;;4965962;28;19926;-74
2022/11/26 09:16:02;;;;;;;;;;;6.00;99.90;;;;;;4958939;28;19981;-74
2022/11/26 09:18:27;;;;;;;;;;;6.00;99.90;;;;;;4947109;28;20359;-74
2022/11/26 09:20:53;;;;;;;;;;;6.10;99.90;;;;;;4959938;28;19926;-74
2022/11/26 09:23:18;;;;;;;;;;;6.20;99.90;;;;;;4940314;28;20363;-73
2022/11/26 09:25:44;;;;;;;;;;;6.20;99.90;;;;;;4963448;28;19969;-74
2022/11/26 09:28:09;;;;;;;;;;;6.20;99.90;;;;;;4953967;28;19965;-72
2022/11/26 09:30:35;;;;;;;;;;;6.30;99.90;;;;;;4954622;28;19933;-74
2022/11/26 09:33:01;;;;;;;;;;;6.40;99.90;;;;;;4942841;28;19945;-72
2022/11/26 09:35:51;;;;;;;;;;;6.40;99.90;;;;;;4975278;28;20044;-72
2022/11/26 09:38:17;;;;;;;;;;;6.50;99.90;;;;;;4950086;28;20370;-72
2022/11/26 09:40:48;;;;;;;;;;;6.60;99.90;;;;;;4963432;28;19975;-72
2022/11/26 09:43:32;;;;;;;;;;;6.70;99.90;;;;;;4949177;28;20565;-72
2022/11/26 09:45:59;;;;;;;;;;;6.70;99.90;;;;;;4951849;28;19926;-74
2022/11/26 09:48:27;;;;;;;;;;;6.70;99.90;;;;;;4967846;28;20367;-72
2022/11/26 09:50:57;;;;;;;;;;;6.80;99.90;;;;;;4961358;28;19929;-72
2022/11/26 09:53:25;;;;;;;;;;;6.80;99.90;;;;;;4964312;28;20362;-72
2022/11/26 09:55:51;;;;;;;;;;;6.80;99.90;;;;;;4976252;28;19922;-72
2022/11/26 09:58:20;;;;;;;;;;;6.90;99.90;;;;;;4962414;28;20404;-72
2022/11/26 10:00:48;;;;;;;;;;;6.90;99.90;;;;;;4964646;28;19922;-72
2022/11/26 10:03:15;;;;;;;;;;;6.90;99.90;;;;;;4971160;28;20320;-72
2022/11/26 10:05:50;;;;;;;;;;;7.00;99.90;;;;;;4971026;28;19922;-72
2022/11/26 10:08:53;;;;;;;;;;;7.00;99.90;;;;;;4954271;28;19937;-73
2022/11/26 10:11:25;;;;;;;;;;;7.00;99.90;;;;;;4954109;28;19921;-73
2022/11/26 10:14:16;;;;;;;;;;;7.00;99.90;;;;;;4959386;28;19921;-73
2022/11/26 10:16:46;;;;;;;;;;;7.10;99.90;;;;;;4971905;28;19996;-73
2022/11/26 10:19:14;;;;;;;;;;;7.10;99.90;;;;;;4974997;28;19969;-74
2022/11/26 10:21:41;;;;;;;;;;;7.20;99.90;;;;;;4970929;28;19977;-74
2022/11/26 10:24:10;;;;;;;;;;;7.20;99.90;;;;;;4939760;28;19926;-74
2022/11/26 10:26:38;;;;;;;;;;;7.20;99.90;;;;;;4982835;28;19922;-74
2022/11/26 10:29:06;;;;;;;;;;;7.30;99.90;;;;;;4957131;28;19945;-73
2022/11/26 10:31:33;;;;;;;;;;;7.30;99.90;;;;;;4975747;28;20036;-74
2022/11/26 10:34:01;;;;;;;;;;;7.40;99.90;;;;;;4942670;28;20386;-74
2022/11/26 10:36:32;;;;;;;;;;;7.40;99.90;;;;;;4950690;28;19930;-74
2022/11/26 10:38:58;;;;;;;;;;;7.50;99.90;;;;;;4973446;28;20036;-74
2022/11/26 10:41:52;;;;;;;;;;;7.50;99.90;;;;;;4965320;28;20012;-74
2022/11/26 10:44:27;;;;;;;;;;;7.50;99.90;;;;;;4968444;28;19929;-74
2022/11/26 10:46:52;;;;;;;;;;;7.60;99.90;;;;;;4962076;28;19926;-74
2022/11/26 10:49:23;;;;;;;;;;;7.60;99.90;;;;;;4956324;28;19960;-74
2022/11/26 10:51:49;;;;;;;;;;;7.60;99.90;;;;;;4973618;28;19952;-74
2022/11/26 10:54:25;;;;;;;;;;;7.60;99.90;;;;;;4956969;28;19929;-74
2022/11/26 10:56:52;;;;;;;;;;;7.60;99.90;;;;;;4973704;28;20012;-74
2022/11/26 10:59:36;;;;;;;;;;;7.60;99.90;;;;;;4973973;28;19925;-74
2022/11/26 11:02:04;;;;;;;;;;;7.60;99.90;;;;;;4975402;28;19928;-73
2022/11/26 11:04:33;;;;;;;;;;;7.60;99.90;;;;;;4964064;28;20298;-74
2022/11/26 11:06:59;;;;;;;;;;;7.70;99.90;;;;;;4957520;28;20580;-74
2022/11/26 11:09:25;;;;;;;;;;;7.70;99.90;;;;;;4973488;28;19937;-73
2022/11/26 11:12:10;;;;;;;;;;;7.70;99.90;;;;;;4957278;28;19929;-73
2022/11/26 11:14:51;;;;;;;;;;;7.70;99.90;;;;;;4947468;28;19986;-74
2022/11/26 11:17:31;;;;;;;;;;;7.70;99.90;;;;;;4962042;28;20318;-75
2022/11/26 11:19:57;;;;;;;;;;;7.80;99.90;;;;;;4972016;28;20071;-74
2022/11/26 11:22:23;;;;;;;;;;;7.80;99.90;;;;;;4975404;28;19922;-74
2022/11/26 11:24:49;;;;;;;;;;;7.80;99.90;;;;;;4954307;28;19972;-74
2022/11/26 11:27:26;;;;;;;;;;;7.80;99.90;;;;;;4947004;28;19925;-74
2022/11/26 11:29:52;;;;;;;;;;;7.80;99.90;;;;;;4981999;28;20328;-74
2022/11/26 11:32:30;;;;;;;;;;;7.80;99.90;;;;;;4977256;28;19929;-74
2022/11/26 11:35:10;;;;;;;;;;;7.80;99.90;;;;;;4953754;28;20267;-74
2022/11/26 11:37:45;;;;;;;;;;;7.90;99.90;;;;;;4955979;28;19933;-74
2022/11/26 11:40:16;;;;;;;;;;;7.90;99.90;;;;;;4957389;28;19975;-73
2022/11/26 11:43:04;;;;;;;;;;;7.90;99.90;;;;;;4972830;28;19921;-73
2022/11/26 11:45:37;;;;;;;;;;;7.90;99.90;;;;;;4972214;28;19926;-73
2022/11/26 11:48:13;;;;;;;;;;;7.90;99.90;;;;;;4956776;28;19929;-74
2022/11/26 11:50:42;;;;;;;;;;;8.00;99.90;;;;;;4972028;28;19972;-75
2022/11/26 11:53:14;;;;;;;;;;;8.00;99.90;;;;;;4956473;28;19929;-74
2022/11/26 11:55:55;;;;;;;;;;;8.10;99.90;;;;;;4956013;28;20120;-75
2022/11/26 11:58:37;;;;;;;;;;;8.20;99.90;;;;;;4956170;28;19932;-75
2022/11/26 12:01:13;;;;;;;;;;;8.40;99.90;;;;;;4955488;28;20021;-75
2022/11/26 12:03:45;;;;;;;;;;;8.50;99.90;;;;;;4960775;28;19975;-75
2022/11/26 12:06:42;;;;;;;;;;;8.60;99.90;;;;;;4962033;28;19991;-75
2022/11/26 12:09:17;;;;;;;;;;;8.60;99.90;;;;;;4957789;28;19928;-75
2022/11/26 12:11:43;;;;;;;;;;;8.70;99.90;;;;;;4976637;28;19926;-75
2022/11/26 12:14:16;;;;;;;;;;;8.70;99.90;;;;;;4959430;28;19960;-74
2022/11/26 12:16:44;;;;;;;;;;;8.70;99.90;;;;;;4953013;28;20435;-74
2022/11/26 12:24:39;;;;;;;;;;;8.60;99.90;;;;;;4948632;28;20017;-73
2022/11/26 12:27:37;;;;;;;;;;;8.60;99.90;;;;;;5159757;23;19945;-72
2022/11/26 12:30:07;;;;;;;;;;;8.50;99.90;;;;;;4937911;28;19926;-72
2022/11/26 12:33:03;;;;;;;;;;;8.50;99.90;;;;;;4935660;28;20567;-72
2022/11/26 12:35:31;;;;;;;;;;;8.50;99.90;;;;;;4934326;28;19926;-73
2022/11/26 12:40:42;;;;;;;;;;;8.50;99.90;;;;;;4985675;28;20396;-73
2022/11/26 12:45:38;;;;;;;;;;;8.50;99.90;;;;;;4986555;28;19934;-73
2022/11/26 12:48:30;;;;;;;;;;;8.40;99.90;;;;;;5129547;23;20205;-72
2022/11/26 12:51:15;;;;;;;;;;;8.40;99.90;;;;;;4965682;28;20401;-73
2022/11/26 12:56:19;;;;;;;;;;;8.40;99.90;;;;;;5039692;23;19926;-72
2022/11/26 13:01:42;;;;;;;;;;;8.40;99.90;;;;;;4929088;29;19999;-72
2022/11/26 13:04:07;;;;;;;;;;;8.40;99.90;;;;;;4895181;29;19935;-72
2022/11/26 13:06:40;;;;;;;;;;;8.50;99.90;;;;;;4892179;29;20017;-73
2022/11/26 13:09:21;;;;;;;;;;;8.50;99.90;;;;;;4929588;29;20386;-73
2022/11/26 13:11:46;;;;;;;;;;;8.50;99.90;;;;;;4913048;29;19938;-74
2022/11/26 13:14:22;;;;;;;;;;;8.50;99.90;;;;;;5075410;23;19926;-74
2022/11/26 13:16:48;;;;;;;;;;;8.50;99.90;;;;;;4951175;28;20399;-75
2022/11/26 13:19:29;;;;;;;;;;;8.40;99.90;;;;;;5299637;23;19926;-74
2022/11/26 13:22:01;;;;;;;;;;;8.40;99.90;;;;;;4949764;28;19922;-76
2022/11/26 13:24:35;;;;;;;;;;;8.40;99.90;;;;;;5166835;23;19930;-72
2022/11/26 13:27:10;;;;;;;;;;;8.30;99.90;;;;;;4967587;28;20301;-75
2022/11/26 13:29:36;;;;;;;;;;;8.30;99.90;;;;;;5179433;23;20344;-74
2022/11/26 13:32:12;;;;;;;;;;;8.30;99.90;;;;;;4949872;28;19988;-75
2022/11/26 13:34:38;;;;;;;;;;;8.30;99.90;;;;;;5111608;23;20072;-77
2022/11/26 13:37:03;;;;;;;;;;;8.30;99.90;;;;;;4962062;28;19961;-76
2022/11/26 13:39:32;;;;;;;;;;;8.30;99.90;;;;;;5209042;23;19933;-74
2022/11/26 13:41:57;;;;;;;;;;;8.20;99.90;;;;;;4950805;28;19930;-74
2022/11/26 13:44:45;;;;;;;;;;;8.20;99.90;;;;;;4941187;28;20451;-74
2022/11/26 13:47:30;;;;;;;;;;;8.20;99.90;;;;;;4935758;28;20278;-74
2022/11/26 13:50:19;;;;;;;;;;;8.30;99.90;;;;;;5099877;23;19931;-75
2022/11/26 13:55:44;;;;;;;;;;;8.30;99.90;;;;;;5272578;23;19980;-75
2022/11/26 14:01:28;;;;;;;;;;;8.30;99.90;;;;;;5068846;23;19938;-73
2022/11/26 14:06:22;;;;;;;;;;;8.40;99.90;;;;;;4997413;28;19949;-75
2022/11/26 14:11:41;;;;;;;;;;;8.40;99.90;;;;;;5113649;23;19937;-72
2022/11/26 14:17:01;;;;;;;;;;;8.50;99.90;;;;;;5080731;23;20135;-72
2022/11/26 14:21:58;;;;;;;;;;;8.50;99.90;;;;;;4992201;28;19937;-74
2022/11/26 14:24:42;;;;;;;;;;;8.50;99.90;;;;;;4962821;28;19922;-75
2022/11/26 14:27:08;;;;;;;;;;;8.50;99.90;;;;;;4962370;28;19984;-75
2022/11/26 14:29:34;;;;;;;;;;;8.50;99.90;;;;;;4933530;28;19973;-75
2022/11/26 14:31:59;;;;;;;;;;;8.50;99.90;;;;;;4944168;28;20447;-75
2022/11/26 14:34:31;;;;;;;;;;;8.50;99.90;;;;;;4960838;28;19929;-75
2022/11/26 14:36:58;;;;;;;;;;;8.50;99.90;;;;;;4962942;28;19929;-75
2022/11/26 14:39:24;;;;;;;;;;;8.50;99.90;;;;;;4978173;28;19976;-75
2022/11/26 14:42:14;;;;;;;;;;;8.50;99.90;;;;;;4942345;28;19926;-75
2022/11/26 14:44:40;;;;;;;;;;;8.40;99.90;;;;;;4993829;28;19937;-75
2022/11/26 14:47:18;;;;;;;;;;;8.40;99.90;;;;;;4946675;28;20095;-75
2022/11/26 14:50:04;;;;;;;;;;;8.40;99.90;;;;;;4950583;28;19922;-74
2022/11/26 14:52:34;;;;;;;;;;;8.40;99.90;;;;;;4977400;28;19921;-75
2022/11/26 14:55:02;;;;;;;;;;;8.30;99.90;;;;;;4962335;28;19928;-77
2022/11/26 14:57:35;;;;;;;;;;;8.30;99.90;;;;;;4979200;28;19937;-77
2022/11/26 15:00:02;;;;;;;;;;;8.30;99.90;;;;;;4961167;28;20044;-76
2022/11/26 15:02:29;;;;;;;;;;;8.20;99.90;;;;;;4986129;28;19926;-75
2022/11/26 15:04:56;;;;;;;;;;;8.20;99.90;;;;;;4961189;28;19922;-75
2022/11/26 15:07:23;;;;;;;;;;;8.10;99.90;;;;;;4977064;28;20219;-75
2022/11/26 15:09:58;;;;;;;;;;;8.10;99.90;;;;;;4945871;28;19926;-75
2022/11/26 15:12:24;;;;;;;;;;;8.10;99.90;;;;;;4962317;28;19930;-74
2022/11/26 15:15:12;;;;;;;;;;;8.10;99.90;;;;;;4961688;28;19922;-75
2022/11/26 15:17:40;;;;;;;;;;;8.00;99.90;;;;;;4962855;28;19926;-75
2022/11/26 15:20:12;;;;;;;;;;;8.00;99.90;;;;;;4956239;28;19965;-75
2022/11/26 15:22:41;;;;;;;;;;;7.90;99.90;;;;;;4937566;28;19922;-75
2022/11/26 15:25:26;;;;;;;;;;;7.90;99.90;;;;;;4936777;28;19926;-75
2022/11/26 15:27:54;;;;;;;;;;;7.80;99.90;;;;;;4955642;28;19922;-75
2022/11/26 15:30:21;;;;;;;;;;;7.70;99.90;;;;;;4945341;28;19934;-75
2022/11/26 15:32:54;;;;;;;;;;;7.70;99.90;;;;;;4939415;28;19978;-75
2022/11/26 15:35:20;;;;;;;;;;;7.60;99.90;;;;;;4939749;28;19925;-75
2022/11/26 15:37:45;;;;;;;;;;;7.50;99.90;;;;;;4955418;28;20295;-75
2022/11/26 15:40:22;;;;;;;;;;;7.50;99.90;;;;;;4939202;28;19941;-75
2022/11/26 15:42:48;;;;;;;;;;;7.40;99.90;;;;;;4955302;28;19945;-75
2022/11/26 15:45:15;;;;;;;;;;;7.30;99.90;;;;;;4955493;28;19926;-75
2022/11/26 15:47:44;;;;;;;;;;;7.30;99.90;;;;;;4939072;28;19977;-75
2022/11/26 15:50:20;;;;;;;;;;;7.20;99.90;;;;;;4956616;28;19961;-75
2022/11/26 15:52:56;;;;;;;;;;;7.20;99.90;;;;;;4941289;28;19969;-75
2022/11/26 15:55:25;;;;;;;;;;;7.10;99.90;;;;;;4939300;28;19922;-75
2022/11/26 15:57:51;;;;;;;;;;;7.10;99.90;;;;;;4946072;28;19926;-75
2022/11/26 16:00:32;;;;;;;;;;;7.00;99.90;;;;;;4955320;28;20009;-74
2022/11/26 16:02:58;;;;;;;;;;;7.00;99.90;;;;;;4940955;29;19929;-74
2022/11/26 16:05:27;;;;;;;;;;;7.00;99.90;;;;;;4920789;28;19923;-74
2022/11/26 16:08:16;;;;;;;;;;;6.90;99.90;;;;;;4957468;28;19930;-74
2022/11/26 16:10:45;;;;;;;;;;;6.90;99.90;;;;;;4926242;28;20302;-74
2022/11/26 16:13:10;;;;;;;;;;;6.80;99.90;;;;;;4939563;28;19922;-74
2022/11/26 16:15:43;;;;;;;;;;;6.80;99.90;;;;;;4937411;28;20080;-74
2022/11/26 16:18:17;;;;;;;;;;;6.70;99.90;;;;;;4936551;28;20029;-74
2022/11/26 16:20:42;;;;;;;;;;;6.70;99.90;;;;;;4953148;28;19936;-74
2022/11/26 16:23:34;;;;;;;;;;;6.70;99.90;;;;;;4954673;28;20409;-74